sensor_id;sensor_type;location;lat;lon;timestamp;P1;durP1;ratioP1;P2;durP2;ratioP2
12441;SDS011;6285;48.804;9.220;2023-04-19T00:00:35;11.85;;;10.02;;
12441;SDS011;6285;48.804;9.220;2023-04-19T00:03:02;11.85;;;10.07;;
12441;SDS011;6285;48.804;9.220;2023-04-19T00:05:30;12.07;;;10.75;;
12441;SDS011;6285;48.804;9.220;2023-04-19T00:07:58;11.00;;;9.90;;
12441;SDS011;6285;48.804;9.220;2023-04-19T00:10:25;11.98;;;10.50;;
12441;SDS011;6285;48.804;9.220;2023-04-19T00:12:52;12.52;;;10.63;;
12441;SDS011;6285;48.804;9.220;2023-04-19T00:15:19;13.30;;;10.80;;
12441;SDS011;6285;48.804;9.220;2023-04-19T00:17:46;14.18;;;10.88;;
12441;SDS011;6285;48.804;9.220;2023-04-19T00:20:13;14.15;;;10.45;;
12441;SDS011;6285;48.804;9.220;2023-04-19T00:22:40;14.13;;;10.75;;
12441;SDS011;6285;48.804;9.220;2023-04-19T00:25:09;12.98;;;10.93;;
12441;SDS011;6285;48.804;9.220;2023-04-19T00:27:36;12.20;;;10.45;;
12441;SDS011;6285;48.804;9.220;2023-04-19T00:30:03;13.10;;;11.18;;
12441;SDS011;6285;48.804;9.220;2023-04-19T00:32:30;11.60;;;10.27;;
12441;SDS011;6285;48.804;9.220;2023-04-19T00:34:57;14.05;;;10.50;;
12441;SDS011;6285;48.804;9.220;2023-04-19T00:37:24;13.07;;;10.80;;
12441;SDS011;6285;48.804;9.220;2023-04-19T00:39:51;13.38;;;10.73;;
12441;SDS011;6285;48.804;9.220;2023-04-19T00:42:20;14.63;;;11.57;;
12441;SDS011;6285;48.804;9.220;2023-04-19T00:44:47;12.93;;;11.23;;
12441;SDS011;6285;48.804;9.220;2023-04-19T00:47:14;14.05;;;11.20;;
12441;SDS011;6285;48.804;9.220;2023-04-19T00:49:41;13.00;;;10.98;;
12441;SDS011;6285;48.804;9.220;2023-04-19T00:52:08;13.20;;;11.02;;
12441;SDS011;6285;48.804;9.220;2023-04-19T00:54:36;13.30;;;10.70;;
12441;SDS011;6285;48.804;9.220;2023-04-19T00:57:05;16.77;;;11.90;;
12441;SDS011;6285;48.804;9.220;2023-04-19T00:59:33;12.90;;;11.38;;
12441;SDS011;6285;48.804;9.220;2023-04-19T01:02:00;12.60;;;10.88;;
12441;SDS011;6285;48.804;9.220;2023-04-19T01:04:27;14.00;;;11.18;;
12441;SDS011;6285;48.804;9.220;2023-04-19T01:06:55;13.05;;;11.20;;
12441;SDS011;6285;48.804;9.220;2023-04-19T01:09:22;15.00;;;12.02;;
12441;SDS011;6285;48.804;9.220;2023-04-19T01:11:49;14.85;;;11.23;;
12441;SDS011;6285;48.804;9.220;2023-04-19T01:14:16;13.43;;;10.73;;
12441;SDS011;6285;48.804;9.220;2023-04-19T01:16:44;15.77;;;11.82;;
12441;SDS011;6285;48.804;9.220;2023-04-19T01:19:12;15.25;;;11.80;;
12441;SDS011;6285;48.804;9.220;2023-04-19T01:21:40;14.00;;;10.43;;
12441;SDS011;6285;48.804;9.220;2023-04-19T01:24:09;14.55;;;11.60;;
12441;SDS011;6285;48.804;9.220;2023-04-19T01:26:36;13.60;;;11.27;;
12441;SDS011;6285;48.804;9.220;2023-04-19T01:29:03;16.50;;;12.75;;
12441;SDS011;6285;48.804;9.220;2023-04-19T01:31:30;14.60;;;11.35;;
12441;SDS011;6285;48.804;9.220;2023-04-19T01:33:57;17.20;;;12.30;;
12441;SDS011;6285;48.804;9.220;2023-04-19T01:36:24;13.57;;;11.90;;
12441;SDS011;6285;48.804;9.220;2023-04-19T01:38:52;16.60;;;13.30;;
12441;SDS011;6285;48.804;9.220;2023-04-19T01:41:20;14.80;;;11.57;;
12441;SDS011;6285;48.804;9.220;2023-04-19T01:43:50;13.73;;;11.50;;
12441;SDS011;6285;48.804;9.220;2023-04-19T01:46:17;15.45;;;11.40;;
12441;SDS011;6285;48.804;9.220;2023-04-19T01:48:45;15.00;;;11.70;;
12441;SDS011;6285;48.804;9.220;2023-04-19T01:51:12;15.32;;;11.85;;
12441;SDS011;6285;48.804;9.220;2023-04-19T01:53:41;15.00;;;11.80;;
12441;SDS011;6285;48.804;9.220;2023-04-19T01:56:08;17.05;;;12.45;;
12441;SDS011;6285;48.804;9.220;2023-04-19T01:58:36;14.70;;;11.80;;
12441;SDS011;6285;48.804;9.220;2023-04-19T02:01:04;16.23;;;12.35;;
12441;SDS011;6285;48.804;9.220;2023-04-19T02:03:31;14.93;;;12.30;;
12441;SDS011;6285;48.804;9.220;2023-04-19T02:05:58;16.15;;;12.35;;
12441;SDS011;6285;48.804;9.220;2023-04-19T02:08:25;16.05;;;12.25;;
12441;SDS011;6285;48.804;9.220;2023-04-19T02:10:52;16.20;;;12.15;;
12441;SDS011;6285;48.804;9.220;2023-04-19T02:13:19;13.73;;;11.80;;
12441;SDS011;6285;48.804;9.220;2023-04-19T02:15:48;14.80;;;12.45;;
12441;SDS011;6285;48.804;9.220;2023-04-19T02:18:15;13.57;;;12.02;;
12441;SDS011;6285;48.804;9.220;2023-04-19T02:20:42;15.93;;;11.93;;
12441;SDS011;6285;48.804;9.220;2023-04-19T02:23:09;15.07;;;12.60;;
12441;SDS011;6285;48.804;9.220;2023-04-19T02:25:36;14.73;;;12.45;;
12441;SDS011;6285;48.804;9.220;2023-04-19T02:28:03;15.65;;;11.25;;
12441;SDS011;6285;48.804;9.220;2023-04-19T02:30:30;14.35;;;12.15;;
12441;SDS011;6285;48.804;9.220;2023-04-19T02:32:59;14.70;;;11.70;;
12441;SDS011;6285;48.804;9.220;2023-04-19T02:35:26;16.52;;;13.02;;
12441;SDS011;6285;48.804;9.220;2023-04-19T02:37:53;14.07;;;12.10;;
12441;SDS011;6285;48.804;9.220;2023-04-19T02:40:20;15.27;;;12.65;;
12441;SDS011;6285;48.804;9.220;2023-04-19T02:42:47;14.10;;;12.30;;
12441;SDS011;6285;48.804;9.220;2023-04-19T02:45:15;13.63;;;12.23;;
12441;SDS011;6285;48.804;9.220;2023-04-19T02:47:42;17.70;;;12.77;;
12441;SDS011;6285;48.804;9.220;2023-04-19T02:50:12;16.75;;;12.95;;
12441;SDS011;6285;48.804;9.220;2023-04-19T02:52:39;15.32;;;12.38;;
12441;SDS011;6285;48.804;9.220;2023-04-19T02:55:06;14.50;;;12.18;;
12441;SDS011;6285;48.804;9.220;2023-04-19T02:57:33;15.45;;;12.82;;
12441;SDS011;6285;48.804;9.220;2023-04-19T03:00:00;16.08;;;12.50;;
12441;SDS011;6285;48.804;9.220;2023-04-19T03:02:29;15.07;;;12.90;;
12441;SDS011;6285;48.804;9.220;2023-04-19T03:04:56;14.63;;;12.32;;
12441;SDS011;6285;48.804;9.220;2023-04-19T03:07:24;15.70;;;13.05;;
12441;SDS011;6285;48.804;9.220;2023-04-19T03:09:52;16.20;;;12.88;;
12441;SDS011;6285;48.804;9.220;2023-04-19T03:12:19;16.33;;;12.13;;
12441;SDS011;6285;48.804;9.220;2023-04-19T03:14:46;16.08;;;12.85;;
12441;SDS011;6285;48.804;9.220;2023-04-19T03:17:13;15.27;;;12.73;;
12441;SDS011;6285;48.804;9.220;2023-04-19T03:19:40;16.15;;;12.82;;
12441;SDS011;6285;48.804;9.220;2023-04-19T03:22:07;15.80;;;12.63;;
12441;SDS011;6285;48.804;9.220;2023-04-19T03:24:35;17.65;;;13.82;;
12441;SDS011;6285;48.804;9.220;2023-04-19T03:27:02;15.52;;;12.57;;
12441;SDS011;6285;48.804;9.220;2023-04-19T03:29:30;16.60;;;13.82;;
12441;SDS011;6285;48.804;9.220;2023-04-19T03:31:57;16.20;;;13.40;;
12441;SDS011;6285;48.804;9.220;2023-04-19T03:34:24;15.93;;;13.43;;
12441;SDS011;6285;48.804;9.220;2023-04-19T03:36:51;16.88;;;13.98;;
12441;SDS011;6285;48.804;9.220;2023-04-19T03:39:18;17.90;;;13.77;;
12441;SDS011;6285;48.804;9.220;2023-04-19T03:41:46;16.50;;;13.55;;
12441;SDS011;6285;48.804;9.220;2023-04-19T03:44:13;15.32;;;13.05;;
12441;SDS011;6285;48.804;9.220;2023-04-19T03:46:40;17.00;;;13.65;;
12441;SDS011;6285;48.804;9.220;2023-04-19T03:49:10;16.38;;;13.27;;
12441;SDS011;6285;48.804;9.220;2023-04-19T03:51:37;18.30;;;14.10;;
12441;SDS011;6285;48.804;9.220;2023-04-19T03:54:04;19.42;;;14.55;;
12441;SDS011;6285;48.804;9.220;2023-04-19T03:56:31;16.67;;;13.63;;
12441;SDS011;6285;48.804;9.220;2023-04-19T03:58:59;17.13;;;14.07;;
12441;SDS011;6285;48.804;9.220;2023-04-19T04:01:27;18.98;;;15.15;;
12441;SDS011;6285;48.804;9.220;2023-04-19T04:03:54;17.80;;;14.65;;
12441;SDS011;6285;48.804;9.220;2023-04-19T04:06:21;19.17;;;15.75;;
12441;SDS011;6285;48.804;9.220;2023-04-19T04:08:48;19.73;;;15.27;;
12441;SDS011;6285;48.804;9.220;2023-04-19T04:11:15;19.15;;;15.82;;
12441;SDS011;6285;48.804;9.220;2023-04-19T04:13:42;20.02;;;15.60;;
12441;SDS011;6285;48.804;9.220;2023-04-19T04:16:11;23.02;;;17.27;;
12441;SDS011;6285;48.804;9.220;2023-04-19T04:18:38;18.98;;;16.23;;
12441;SDS011;6285;48.804;9.220;2023-04-19T04:21:05;18.67;;;15.23;;
12441;SDS011;6285;48.804;9.220;2023-04-19T04:23:33;17.20;;;14.73;;
12441;SDS011;6285;48.804;9.220;2023-04-19T04:26:00;16.67;;;14.88;;
12441;SDS011;6285;48.804;9.220;2023-04-19T04:28:29;19.17;;;15.25;;
12441;SDS011;6285;48.804;9.220;2023-04-19T04:30:57;20.23;;;15.68;;
12441;SDS011;6285;48.804;9.220;2023-04-19T04:33:26;19.77;;;15.23;;
12441;SDS011;6285;48.804;9.220;2023-04-19T04:35:53;18.65;;;14.60;;
12441;SDS011;6285;48.804;9.220;2023-04-19T04:38:21;19.88;;;14.68;;
12441;SDS011;6285;48.804;9.220;2023-04-19T04:40:49;19.58;;;14.45;;
12441;SDS011;6285;48.804;9.220;2023-04-19T04:43:17;18.30;;;14.25;;
12441;SDS011;6285;48.804;9.220;2023-04-19T04:45:45;17.83;;;14.73;;
12441;SDS011;6285;48.804;9.220;2023-04-19T04:48:12;20.85;;;15.35;;
12441;SDS011;6285;48.804;9.220;2023-04-19T04:50:40;18.63;;;15.55;;
12441;SDS011;6285;48.804;9.220;2023-04-19T04:53:08;18.55;;;15.10;;
12441;SDS011;6285;48.804;9.220;2023-04-19T04:55:36;18.67;;;15.70;;
12441;SDS011;6285;48.804;9.220;2023-04-19T04:58:03;18.38;;;14.95;;
12441;SDS011;6285;48.804;9.220;2023-04-19T05:00:30;20.60;;;15.27;;
12441;SDS011;6285;48.804;9.220;2023-04-19T05:02:58;19.27;;;14.77;;
12441;SDS011;6285;48.804;9.220;2023-04-19T05:05:26;16.52;;;14.60;;
12441;SDS011;6285;48.804;9.220;2023-04-19T05:07:54;19.38;;;14.75;;
12441;SDS011;6285;48.804;9.220;2023-04-19T05:10:21;18.73;;;15.10;;
12441;SDS011;6285;48.804;9.220;2023-04-19T05:12:48;17.08;;;13.98;;
12441;SDS011;6285;48.804;9.220;2023-04-19T05:15:15;15.50;;;13.68;;
12441;SDS011;6285;48.804;9.220;2023-04-19T05:17:42;17.17;;;14.27;;
12441;SDS011;6285;48.804;9.220;2023-04-19T05:20:10;16.83;;;13.90;;
12441;SDS011;6285;48.804;9.220;2023-04-19T05:22:37;18.13;;;14.38;;
12441;SDS011;6285;48.804;9.220;2023-04-19T05:25:06;16.33;;;13.07;;
12441;SDS011;6285;48.804;9.220;2023-04-19T05:27:33;17.77;;;14.18;;
12441;SDS011;6285;48.804;9.220;2023-04-19T05:30:01;18.80;;;14.10;;
12441;SDS011;6285;48.804;9.220;2023-04-19T05:32:28;17.25;;;14.48;;
12441;SDS011;6285;48.804;9.220;2023-04-19T05:34:55;16.35;;;14.13;;
12441;SDS011;6285;48.804;9.220;2023-04-19T05:37:22;17.92;;;14.10;;
12441;SDS011;6285;48.804;9.220;2023-04-19T05:39:50;18.20;;;15.02;;
12441;SDS011;6285;48.804;9.220;2023-04-19T05:42:18;20.00;;;15.38;;
12441;SDS011;6285;48.804;9.220;2023-04-19T05:44:45;18.98;;;14.57;;
12441;SDS011;6285;48.804;9.220;2023-04-19T05:47:12;17.38;;;14.90;;
12441;SDS011;6285;48.804;9.220;2023-04-19T05:49:41;19.58;;;14.95;;
12441;SDS011;6285;48.804;9.220;2023-04-19T05:52:08;18.33;;;14.68;;
12441;SDS011;6285;48.804;9.220;2023-04-19T05:54:35;18.92;;;14.73;;
12441;SDS011;6285;48.804;9.220;2023-04-19T05:57:02;15.45;;;13.45;;
12441;SDS011;6285;48.804;9.220;2023-04-19T05:59:30;17.27;;;13.25;;
12441;SDS011;6285;48.804;9.220;2023-04-19T06:01:57;18.50;;;13.65;;
12441;SDS011;6285;48.804;9.220;2023-04-19T06:04:25;17.55;;;13.65;;
12441;SDS011;6285;48.804;9.220;2023-04-19T06:06:54;18.38;;;14.25;;
12441;SDS011;6285;48.804;9.220;2023-04-19T06:09:21;17.63;;;14.20;;
12441;SDS011;6285;48.804;9.220;2023-04-19T06:11:48;16.90;;;14.07;;
12441;SDS011;6285;48.804;9.220;2023-04-19T06:14:14;17.17;;;13.30;;
12441;SDS011;6285;48.804;9.220;2023-04-19T06:16:43;16.35;;;13.68;;
12441;SDS011;6285;48.804;9.220;2023-04-19T06:19:10;18.75;;;13.48;;
12441;SDS011;6285;48.804;9.220;2023-04-19T06:21:37;16.52;;;13.50;;
12441;SDS011;6285;48.804;9.220;2023-04-19T06:24:05;16.40;;;12.82;;
12441;SDS011;6285;48.804;9.220;2023-04-19T06:26:32;13.98;;;12.27;;
12441;SDS011;6285;48.804;9.220;2023-04-19T06:28:59;15.48;;;13.27;;
12441;SDS011;6285;48.804;9.220;2023-04-19T06:31:26;16.33;;;13.13;;
12441;SDS011;6285;48.804;9.220;2023-04-19T06:33:55;14.60;;;12.02;;
12441;SDS011;6285;48.804;9.220;2023-04-19T06:36:22;17.55;;;14.05;;
12441;SDS011;6285;48.804;9.220;2023-04-19T06:38:49;15.85;;;12.68;;
12441;SDS011;6285;48.804;9.220;2023-04-19T06:41:16;16.17;;;12.18;;
12441;SDS011;6285;48.804;9.220;2023-04-19T06:43:43;14.73;;;12.20;;
12441;SDS011;6285;48.804;9.220;2023-04-19T06:46:10;15.65;;;11.98;;
12441;SDS011;6285;48.804;9.220;2023-04-19T06:48:39;13.82;;;11.45;;
12441;SDS011;6285;48.804;9.220;2023-04-19T06:51:08;15.57;;;12.40;;
12441;SDS011;6285;48.804;9.220;2023-04-19T06:53:35;15.27;;;11.82;;
12441;SDS011;6285;48.804;9.220;2023-04-19T06:56:02;13.63;;;12.20;;
12441;SDS011;6285;48.804;9.220;2023-04-19T06:58:30;14.35;;;11.52;;
12441;SDS011;6285;48.804;9.220;2023-04-19T07:00:57;12.32;;;11.02;;
12441;SDS011;6285;48.804;9.220;2023-04-19T07:03:25;14.38;;;12.13;;
12441;SDS011;6285;48.804;9.220;2023-04-19T07:05:52;14.18;;;12.27;;
12441;SDS011;6285;48.804;9.220;2023-04-19T07:08:21;16.02;;;11.70;;
12441;SDS011;6285;48.804;9.220;2023-04-19T07:10:48;16.63;;;12.23;;
12441;SDS011;6285;48.804;9.220;2023-04-19T07:13:15;13.07;;;10.85;;
12441;SDS011;6285;48.804;9.220;2023-04-19T07:15:42;14.15;;;11.88;;
12441;SDS011;6285;48.804;9.220;2023-04-19T07:18:10;13.88;;;11.68;;
12441;SDS011;6285;48.804;9.220;2023-04-19T07:20:40;13.32;;;11.88;;
12441;SDS011;6285;48.804;9.220;2023-04-19T07:23:09;12.02;;;10.82;;
12441;SDS011;6285;48.804;9.220;2023-04-19T07:25:38;15.60;;;12.23;;
12441;SDS011;6285;48.804;9.220;2023-04-19T07:28:05;13.23;;;11.80;;
12441;SDS011;6285;48.804;9.220;2023-04-19T07:30:34;13.02;;;10.93;;
12441;SDS011;6285;48.804;9.220;2023-04-19T07:33:01;14.13;;;11.52;;
12441;SDS011;6285;48.804;9.220;2023-04-19T07:35:32;14.93;;;11.07;;
12441;SDS011;6285;48.804;9.220;2023-04-19T07:37:59;12.60;;;10.95;;
12441;SDS011;6285;48.804;9.220;2023-04-19T07:40:26;12.50;;;10.93;;
12441;SDS011;6285;48.804;9.220;2023-04-19T07:42:55;12.45;;;11.15;;
12441;SDS011;6285;48.804;9.220;2023-04-19T07:45:22;12.45;;;10.57;;
12441;SDS011;6285;48.804;9.220;2023-04-19T07:47:49;11.23;;;10.10;;
12441;SDS011;6285;48.804;9.220;2023-04-19T07:50:16;15.27;;;10.75;;
12441;SDS011;6285;48.804;9.220;2023-04-19T07:52:43;12.98;;;11.27;;
12441;SDS011;6285;48.804;9.220;2023-04-19T07:55:10;12.95;;;11.00;;
12441;SDS011;6285;48.804;9.220;2023-04-19T07:57:37;13.25;;;10.43;;
12441;SDS011;6285;48.804;9.220;2023-04-19T08:00:06;13.48;;;10.88;;
12441;SDS011;6285;48.804;9.220;2023-04-19T08:02:35;13.50;;;11.00;;
12441;SDS011;6285;48.804;9.220;2023-04-19T08:05:03;12.20;;;10.43;;
12441;SDS011;6285;48.804;9.220;2023-04-19T08:07:30;10.80;;;9.70;;
12441;SDS011;6285;48.804;9.220;2023-04-19T08:09:57;10.07;;;8.90;;
12441;SDS011;6285;48.804;9.220;2023-04-19T08:12:25;9.25;;;8.35;;
12441;SDS011;6285;48.804;9.220;2023-04-19T08:14:52;10.10;;;8.57;;
12441;SDS011;6285;48.804;9.220;2023-04-19T08:17:21;9.45;;;8.27;;
12441;SDS011;6285;48.804;9.220;2023-04-19T08:19:48;9.05;;;7.53;;
12441;SDS011;6285;48.804;9.220;2023-04-19T08:22:15;10.98;;;8.05;;
12441;SDS011;6285;48.804;9.220;2023-04-19T08:24:43;14.10;;;8.27;;
12441;SDS011;6285;48.804;9.220;2023-04-19T08:27:10;8.18;;;7.38;;
12441;SDS011;6285;48.804;9.220;2023-04-19T08:29:37;11.10;;;7.35;;
12441;SDS011;6285;48.804;9.220;2023-04-19T08:32:04;21.67;;;17.70;;
12441;SDS011;6285;48.804;9.220;2023-04-19T08:34:35;9.43;;;8.13;;
12441;SDS011;6285;48.804;9.220;2023-04-19T08:37:02;8.77;;;7.80;;
12441;SDS011;6285;48.804;9.220;2023-04-19T08:39:29;10.32;;;8.23;;
12441;SDS011;6285;48.804;9.220;2023-04-19T08:41:56;8.93;;;7.18;;
12441;SDS011;6285;48.804;9.220;2023-04-19T08:44:29;10.05;;;7.57;;
12441;SDS011;6285;48.804;9.220;2023-04-19T08:46:57;8.45;;;7.40;;
12441;SDS011;6285;48.804;9.220;2023-04-19T08:49:25;9.73;;;7.40;;
12441;SDS011;6285;48.804;9.220;2023-04-19T08:51:54;9.50;;;7.68;;
12441;SDS011;6285;48.804;9.220;2023-04-19T08:54:23;10.75;;;7.68;;
12441;SDS011;6285;48.804;9.220;2023-04-19T08:56:51;9.57;;;7.53;;
12441;SDS011;6285;48.804;9.220;2023-04-19T08:59:18;10.77;;;8.25;;
12441;SDS011;6285;48.804;9.220;2023-04-19T09:01:45;9.10;;;7.90;;
12441;SDS011;6285;48.804;9.220;2023-04-19T09:04:11;8.40;;;7.55;;
12441;SDS011;6285;48.804;9.220;2023-04-19T09:06:39;11.90;;;8.18;;
12441;SDS011;6285;48.804;9.220;2023-04-19T09:09:17;12.18;;;8.43;;
12441;SDS011;6285;48.804;9.220;2023-04-19T09:11:44;9.55;;;7.85;;
12441;SDS011;6285;48.804;9.220;2023-04-19T09:14:12;9.48;;;7.10;;
12441;SDS011;6285;48.804;9.220;2023-04-19T09:16:40;9.20;;;8.07;;
12441;SDS011;6285;48.804;9.220;2023-04-19T09:19:07;10.30;;;9.20;;
12441;SDS011;6285;48.804;9.220;2023-04-19T09:21:34;10.13;;;9.07;;
12441;SDS011;6285;48.804;9.220;2023-04-19T09:24:01;10.52;;;9.38;;
12441;SDS011;6285;48.804;9.220;2023-04-19T09:26:30;11.68;;;8.60;;
12441;SDS011;6285;48.804;9.220;2023-04-19T09:28:57;10.95;;;8.43;;
12441;SDS011;6285;48.804;9.220;2023-04-19T09:31:26;12.13;;;9.40;;
12441;SDS011;6285;48.804;9.220;2023-04-19T09:33:53;11.65;;;9.20;;
12441;SDS011;6285;48.804;9.220;2023-04-19T09:36:25;11.43;;;9.20;;
12441;SDS011;6285;48.804;9.220;2023-04-19T09:38:53;11.10;;;10.00;;
12441;SDS011;6285;48.804;9.220;2023-04-19T09:41:21;11.70;;;9.55;;
12441;SDS011;6285;48.804;9.220;2023-04-19T09:43:49;10.50;;;9.02;;
12441;SDS011;6285;48.804;9.220;2023-04-19T09:46:29;11.60;;;8.70;;
12441;SDS011;6285;48.804;9.220;2023-04-19T09:51:44;12.93;;;8.80;;
12441;SDS011;6285;48.804;9.220;2023-04-19T09:54:12;11.05;;;9.20;;
12441;SDS011;6285;48.804;9.220;2023-04-19T09:56:39;10.35;;;8.90;;
12441;SDS011;6285;48.804;9.220;2023-04-19T09:59:08;10.73;;;9.10;;
12441;SDS011;6285;48.804;9.220;2023-04-19T10:01:37;11.77;;;8.82;;
12441;SDS011;6285;48.804;9.220;2023-04-19T10:04:05;11.10;;;8.80;;
12441;SDS011;6285;48.804;9.220;2023-04-19T10:06:33;10.30;;;9.20;;
12441;SDS011;6285;48.804;9.220;2023-04-19T10:09:01;9.00;;;8.10;;
12441;SDS011;6285;48.804;9.220;2023-04-19T10:11:30;11.82;;;9.05;;
12441;SDS011;6285;48.804;9.220;2023-04-19T10:14:00;10.27;;;8.77;;
12441;SDS011;6285;48.804;9.220;2023-04-19T10:16:31;9.15;;;8.25;;
12441;SDS011;6285;48.804;9.220;2023-04-19T10:18:58;10.00;;;8.70;;
12441;SDS011;6285;48.804;9.220;2023-04-19T10:21:26;10.63;;;8.15;;
12441;SDS011;6285;48.804;9.220;2023-04-19T10:23:53;11.23;;;8.18;;
12441;SDS011;6285;48.804;9.220;2023-04-19T10:26:21;9.43;;;7.45;;
12441;SDS011;6285;48.804;9.220;2023-04-19T10:28:48;9.65;;;7.95;;
12441;SDS011;6285;48.804;9.220;2023-04-19T10:31:16;8.30;;;7.50;;
12441;SDS011;6285;48.804;9.220;2023-04-19T10:33:48;8.68;;;7.78;;
12441;SDS011;6285;48.804;9.220;2023-04-19T10:36:16;10.02;;;8.30;;
12441;SDS011;6285;48.804;9.220;2023-04-19T10:38:44;9.25;;;8.25;;
12441;SDS011;6285;48.804;9.220;2023-04-19T10:41:12;8.95;;;8.05;;
12441;SDS011;6285;48.804;9.220;2023-04-19T10:43:40;9.80;;;8.65;;
12441;SDS011;6285;48.804;9.220;2023-04-19T10:46:08;9.00;;;7.80;;
12441;SDS011;6285;48.804;9.220;2023-04-19T10:51:22;9.15;;;8.25;;
12441;SDS011;6285;48.804;9.220;2023-04-19T10:53:55;12.13;;;8.82;;
12441;SDS011;6285;48.804;9.220;2023-04-19T10:59:12;11.52;;;8.98;;
12441;SDS011;6285;48.804;9.220;2023-04-19T11:01:46;11.48;;;8.10;;
12441;SDS011;6285;48.804;9.220;2023-04-19T11:04:16;10.60;;;8.80;;
12441;SDS011;6285;48.804;9.220;2023-04-19T11:09:29;11.00;;;8.50;;
12441;SDS011;6285;48.804;9.220;2023-04-19T11:11:59;9.85;;;8.85;;
12441;SDS011;6285;48.804;9.220;2023-04-19T11:14:27;10.35;;;8.95;;
12441;SDS011;6285;48.804;9.220;2023-04-19T11:16:55;11.70;;;9.77;;
12441;SDS011;6285;48.804;9.220;2023-04-19T11:19:24;9.20;;;8.30;;
12441;SDS011;6285;48.804;9.220;2023-04-19T11:21:51;11.00;;;8.50;;
12441;SDS011;6285;48.804;9.220;2023-04-19T11:24:18;11.70;;;8.40;;
12441;SDS011;6285;48.804;9.220;2023-04-19T11:26:45;9.52;;;8.35;;
12441;SDS011;6285;48.804;9.220;2023-04-19T11:29:12;11.55;;;8.95;;
12441;SDS011;6285;48.804;9.220;2023-04-19T11:31:39;9.88;;;8.88;;
12441;SDS011;6285;48.804;9.220;2023-04-19T11:34:10;11.48;;;8.40;;
12441;SDS011;6285;48.804;9.220;2023-04-19T11:39:17;11.30;;;9.40;;
12441;SDS011;6285;48.804;9.220;2023-04-19T11:41:45;10.73;;;8.40;;
12441;SDS011;6285;48.804;9.220;2023-04-19T11:44:13;15.07;;;9.15;;
12441;SDS011;6285;48.804;9.220;2023-04-19T11:46:40;12.35;;;9.00;;
12441;SDS011;6285;48.804;9.220;2023-04-19T11:49:07;12.00;;;9.57;;
12441;SDS011;6285;48.804;9.220;2023-04-19T11:51:34;12.18;;;10.07;;
12441;SDS011;6285;48.804;9.220;2023-04-19T11:56:57;15.13;;;12.05;;
12441;SDS011;6285;48.804;9.220;2023-04-19T11:59:24;15.00;;;13.38;;
12441;SDS011;6285;48.804;9.220;2023-04-19T12:01:51;17.33;;;14.05;;
12441;SDS011;6285;48.804;9.220;2023-04-19T12:04:18;17.20;;;14.30;;
12441;SDS011;6285;48.804;9.220;2023-04-19T12:06:54;16.70;;;13.70;;
12441;SDS011;6285;48.804;9.220;2023-04-19T12:09:22;16.70;;;13.45;;
12441;SDS011;6285;48.804;9.220;2023-04-19T12:11:49;15.80;;;13.40;;
12441;SDS011;6285;48.804;9.220;2023-04-19T12:14:18;15.95;;;14.00;;
12441;SDS011;6285;48.804;9.220;2023-04-19T12:19:33;18.63;;;14.63;;
12441;SDS011;6285;48.804;9.220;2023-04-19T12:22:06;18.05;;;14.90;;
12441;SDS011;6285;48.804;9.220;2023-04-19T12:24:33;19.13;;;15.15;;
12441;SDS011;6285;48.804;9.220;2023-04-19T12:27:01;18.85;;;15.40;;
12441;SDS011;6285;48.804;9.220;2023-04-19T12:29:29;15.77;;;13.85;;
12441;SDS011;6285;48.804;9.220;2023-04-19T12:31:56;17.63;;;14.25;;
12441;SDS011;6285;48.804;9.220;2023-04-19T12:34:23;17.98;;;14.43;;
12441;SDS011;6285;48.804;9.220;2023-04-19T12:36:50;17.50;;;14.13;;
12441;SDS011;6285;48.804;9.220;2023-04-19T12:39:17;17.05;;;14.30;;
12441;SDS011;6285;48.804;9.220;2023-04-19T12:41:45;20.00;;;14.52;;
12441;SDS011;6285;48.804;9.220;2023-04-19T12:44:12;18.55;;;13.82;;
12441;SDS011;6285;48.804;9.220;2023-04-19T12:46:41;16.25;;;13.82;;
12441;SDS011;6285;48.804;9.220;2023-04-19T12:49:08;17.90;;;14.60;;
12441;SDS011;6285;48.804;9.220;2023-04-19T12:51:35;19.02;;;14.88;;
12441;SDS011;6285;48.804;9.220;2023-04-19T12:54:02;18.02;;;14.50;;
12441;SDS011;6285;48.804;9.220;2023-04-19T12:56:31;16.70;;;13.75;;
12441;SDS011;6285;48.804;9.220;2023-04-19T12:58:58;17.65;;;13.27;;
12441;SDS011;6285;48.804;9.220;2023-04-19T13:01:25;19.08;;;14.88;;
12441;SDS011;6285;48.804;9.220;2023-04-19T13:03:53;18.25;;;13.45;;
12441;SDS011;6285;48.804;9.220;2023-04-19T13:06:20;16.25;;;13.40;;
12441;SDS011;6285;48.804;9.220;2023-04-19T13:08:47;13.77;;;12.02;;
12441;SDS011;6285;48.804;9.220;2023-04-19T13:11:14;17.60;;;12.82;;
12441;SDS011;6285;48.804;9.220;2023-04-19T13:13:46;14.57;;;11.80;;
12441;SDS011;6285;48.804;9.220;2023-04-19T13:16:13;16.70;;;11.60;;
12441;SDS011;6285;48.804;9.220;2023-04-19T13:18:40;13.80;;;11.13;;
12441;SDS011;6285;48.804;9.220;2023-04-19T13:21:09;13.70;;;10.00;;
12441;SDS011;6285;48.804;9.220;2023-04-19T13:23:36;15.52;;;10.55;;
12441;SDS011;6285;48.804;9.220;2023-04-19T13:26:03;13.38;;;9.52;;
12441;SDS011;6285;48.804;9.220;2023-04-19T13:28:30;14.38;;;9.82;;
12441;SDS011;6285;48.804;9.220;2023-04-19T13:30:59;14.15;;;11.00;;
12441;SDS011;6285;48.804;9.220;2023-04-19T13:33:27;13.55;;;10.38;;
12441;SDS011;6285;48.804;9.220;2023-04-19T13:35:54;13.57;;;9.57;;
12441;SDS011;6285;48.804;9.220;2023-04-19T13:38:22;12.50;;;9.55;;
12441;SDS011;6285;48.804;9.220;2023-04-19T13:40:49;11.07;;;9.77;;
12441;SDS011;6285;48.804;9.220;2023-04-19T13:43:16;13.43;;;9.38;;
12441;SDS011;6285;48.804;9.220;2023-04-19T13:45:43;10.13;;;8.23;;
12441;SDS011;6285;48.804;9.220;2023-04-19T13:48:10;11.35;;;9.30;;
12441;SDS011;6285;48.804;9.220;2023-04-19T13:50:37;12.93;;;9.20;;
12441;SDS011;6285;48.804;9.220;2023-04-19T13:53:05;12.68;;;9.10;;
12441;SDS011;6285;48.804;9.220;2023-04-19T13:55:33;13.07;;;9.15;;
12441;SDS011;6285;48.804;9.220;2023-04-19T13:58:00;13.02;;;9.43;;
12441;SDS011;6285;48.804;9.220;2023-04-19T14:00:27;12.73;;;9.15;;
12441;SDS011;6285;48.804;9.220;2023-04-19T14:02:54;10.77;;;9.15;;
12441;SDS011;6285;48.804;9.220;2023-04-19T14:05:21;9.68;;;8.68;;
12441;SDS011;6285;48.804;9.220;2023-04-19T14:07:49;10.95;;;8.23;;
12441;SDS011;6285;48.804;9.220;2023-04-19T14:10:16;10.88;;;8.73;;
12441;SDS011;6285;48.804;9.220;2023-04-19T14:12:44;11.07;;;8.80;;
12441;SDS011;6285;48.804;9.220;2023-04-19T14:15:13;10.45;;;8.18;;
12441;SDS011;6285;48.804;9.220;2023-04-19T14:17:40;8.57;;;7.63;;
12441;SDS011;6285;48.804;9.220;2023-04-19T14:20:07;10.13;;;9.13;;
12441;SDS011;6285;48.804;9.220;2023-04-19T14:22:35;9.18;;;7.70;;
12441;SDS011;6285;48.804;9.220;2023-04-19T14:25:02;11.68;;;8.45;;
12441;SDS011;6285;48.804;9.220;2023-04-19T14:27:29;10.25;;;7.93;;
12441;SDS011;6285;48.804;9.220;2023-04-19T14:30:00;9.75;;;7.53;;
12441;SDS011;6285;48.804;9.220;2023-04-19T14:32:27;11.35;;;8.40;;
12441;SDS011;6285;48.804;9.220;2023-04-19T14:34:54;9.48;;;8.02;;
12441;SDS011;6285;48.804;9.220;2023-04-19T14:37:21;10.35;;;7.70;;
12441;SDS011;6285;48.804;9.220;2023-04-19T14:39:49;8.88;;;7.85;;
12441;SDS011;6285;48.804;9.220;2023-04-19T14:42:16;10.43;;;8.77;;
12441;SDS011;6285;48.804;9.220;2023-04-19T14:44:43;9.13;;;8.23;;
12441;SDS011;6285;48.804;9.220;2023-04-19T14:47:12;10.20;;;8.18;;
12441;SDS011;6285;48.804;9.220;2023-04-19T14:49:39;10.70;;;8.60;;
12441;SDS011;6285;48.804;9.220;2023-04-19T14:52:06;9.93;;;8.73;;
12441;SDS011;6285;48.804;9.220;2023-04-19T14:54:33;11.35;;;9.27;;
12441;SDS011;6285;48.804;9.220;2023-04-19T14:57:01;11.52;;;9.15;;
12441;SDS011;6285;48.804;9.220;2023-04-19T14:59:28;10.98;;;9.35;;
12441;SDS011;6285;48.804;9.220;2023-04-19T15:01:55;11.73;;;9.15;;